Rechercher aéroport 
image banner adimage banner adimage banner ad
image banner ad

CA37 - Dominican Santa Cruz Hospital

Situé à Santa Cruz, United States

ICAO - CA37, IATA -

Données fournies par Airmate  

Information générale

Coordonnées: N36°59'26" W121°58'57"
Élévation : 118 feet MSL.
Variation magnétique : 13° East
Voir autres Aéroports à California

Données opérationnelles

Special qualification required
Heure actuelle UTC:
Heure actuelle locale:
Météo à : KWVI - Watsonville Muni ( 18 km )
METAR: KWVI 262253Z AUTO VRB05KT 10SM CLR 21/13 A2997 RMK AO2 SLP148 T02110128
Voir NOTAMs / SUP AIP / TFR affectant cet aéroport [VIEW]
Fréquences de communication: [VIEW]

Pistes:

Coordonnées de l'aéroport

Adresse: Santa Cruz United States

Vue satellite de CA37